createdAt,value
2022-10-10T00:09:53.818Z,1.08
2022-10-10T00:19:55.623Z,1.10
2022-10-10T00:29:57.531Z,0.90
2022-10-10T00:39:59.317Z,1.05
2022-10-10T00:50:01.127Z,1.00
2022-10-10T01:00:04.873Z,0.90
2022-10-10T01:10:10.507Z,0.95
2022-10-10T01:20:42.988Z,1.10
2022-10-10T01:30:48.701Z,1.02
2022-10-10T01:41:13.583Z,0.90
2022-10-10T01:51:21.575Z,0.75
2022-10-10T02:01:45.745Z,1.00
2022-10-10T02:11:49.162Z,1.00
2022-10-10T02:21:53.157Z,0.73
2022-10-10T02:32:20.322Z,0.90
2022-10-10T02:42:23.555Z,0.80
2022-10-10T02:52:25.403Z,0.90
2022-10-10T03:02:27.439Z,0.75
2022-10-10T03:12:29.195Z,0.70
2022-10-10T03:22:31.035Z,0.90
2022-10-10T03:32:32.835Z,0.90
2022-10-10T03:42:34.620Z,1.00
2022-10-10T03:52:36.617Z,0.98
2022-10-10T04:02:38.532Z,0.77
2022-10-10T04:12:40.531Z,0.80
2022-10-10T04:22:42.727Z,0.85
2022-10-10T04:32:44.470Z,0.90
2022-10-10T04:42:46.255Z,0.80
2022-10-10T04:52:48.289Z,0.70
2022-10-10T05:02:50.655Z,0.88
2022-10-10T05:12:53.423Z,0.80
2022-10-10T05:22:55.492Z,0.73
2022-10-10T05:32:57.332Z,0.90
2022-10-10T05:42:59.209Z,1.02
2022-10-10T05:53:01.379Z,0.90
2022-10-10T06:03:03.593Z,0.98
2022-10-10T06:13:05.435Z,0.90
2022-10-10T06:23:08.750Z,0.90
2022-10-10T06:33:12.465Z,1.20
2022-10-10T06:43:15.678Z,1.10
2022-10-10T06:53:17.435Z,1.02
2022-10-10T07:03:19.798Z,1.20
2022-10-10T07:13:21.876Z,1.05
2022-10-10T07:23:23.868Z,0.90
2022-10-10T07:33:25.797Z,1.10
2022-10-10T07:43:27.616Z,1.10
2022-10-10T07:53:29.869Z,1.10
2022-10-10T08:03:31.830Z,0.93
2022-10-10T08:13:34.909Z,1.20
2022-10-10T08:23:36.756Z,1.10
2022-10-10T08:33:40.083Z,1.15
2022-10-10T08:43:51.301Z,1.40
2022-10-10T08:53:57.659Z,1.00
2022-10-10T09:04:01.865Z,1.20
2022-10-10T09:14:21.662Z,0.88
2022-10-10T09:24:32.423Z,1.20
2022-10-10T09:34:50.916Z,1.30
2022-10-10T09:44:52.899Z,1.40
2022-10-10T09:55:02.077Z,1.20
2022-10-10T10:05:27.609Z,1.25
2022-10-10T10:15:31.667Z,1.20
2022-10-10T10:25:37.349Z,1.17
2022-10-10T10:35:43.161Z,1.38
2022-10-10T10:46:03.436Z,1.30
2022-10-10T10:56:08.007Z,1.20
2022-10-10T11:06:35.260Z,1.30
2022-10-10T11:27:27.480Z,1.10
2022-10-10T11:37:32.415Z,2.08
2022-10-10T11:47:58.531Z,2.10
2022-10-10T11:58:06.275Z,2.30
2022-10-10T12:08:08.075Z,1.95
2022-10-10T12:18:39.741Z,1.70
2022-10-10T12:29:05.048Z,1.83
2022-10-10T12:39:08.198Z,1.85
2022-10-10T12:49:15.536Z,1.38
2022-10-10T12:59:24.253Z,1.30
2022-10-10T13:09:34.910Z,1.35
2022-10-10T13:19:41.673Z,1.40
2022-10-10T13:29:44.036Z,1.30
2022-10-10T13:39:47.544Z,1.42
2022-10-10T13:49:57.146Z,1.60
2022-10-10T14:00:06.971Z,1.50
2022-10-10T14:10:10.345Z,1.25
2022-10-10T14:20:13.154Z,1.38
2022-10-10T14:30:15.435Z,1.90
2022-10-10T14:40:20.342Z,1.20
2022-10-10T14:50:26.067Z,1.50
2022-10-10T15:00:28.697Z,1.60
2022-10-10T15:10:34.623Z,1.30
2022-10-10T15:20:37.084Z,1.30
2022-10-10T15:30:42.878Z,1.77
2022-10-10T15:40:44.991Z,1.60
2022-10-10T15:50:46.859Z,1.48
2022-10-10T16:00:48.722Z,1.30
2022-10-10T16:10:50.634Z,1.85
2022-10-10T16:20:52.424Z,1.50
2022-10-10T16:30:54.299Z,1.52
2022-10-10T16:40:58.586Z,1.40
2022-10-10T16:51:05.751Z,1.30
2022-10-10T17:01:17.463Z,1.05
2022-10-10T17:11:21.906Z,1.30
2022-10-10T17:21:25.176Z,1.17
2022-10-10T17:31:27.481Z,1.20
2022-10-10T17:41:29.963Z,1.10
2022-10-10T17:51:32.070Z,1.20
2022-10-10T18:01:35.770Z,0.90
2022-10-10T18:11:37.758Z,1.48
2022-10-10T18:21:39.699Z,1.08
2022-10-10T18:31:41.646Z,1.00
2022-10-10T18:41:43.425Z,1.10
2022-10-10T18:51:45.298Z,1.00
2022-10-10T19:01:47.194Z,1.08
2022-10-10T19:11:53.379Z,1.10
2022-10-10T19:21:55.222Z,1.25
2022-10-10T19:31:57.263Z,1.20
2022-10-10T19:41:59.145Z,1.10
2022-10-10T19:52:00.964Z,1.20
2022-10-10T20:02:02.903Z,1.08
2022-10-10T20:12:04.876Z,1.20
2022-10-10T20:22:07.205Z,1.05
2022-10-10T20:32:08.999Z,1.10
2022-10-10T20:42:10.776Z,1.00
2022-10-10T20:52:12.569Z,1.10
2022-10-10T21:02:19.161Z,1.13
2022-10-10T21:12:21.628Z,1.02
2022-10-10T21:22:23.922Z,1.00
2022-10-10T21:32:26.466Z,1.13
2022-10-10T21:42:28.233Z,0.90
2022-10-10T21:52:30.048Z,1.00
2022-10-10T22:02:31.908Z,1.20
2022-10-10T22:12:33.755Z,1.00
2022-10-10T22:22:37.109Z,1.20
2022-10-10T22:32:39.278Z,1.23
2022-10-10T22:42:41.032Z,1.40
2022-10-10T22:52:42.856Z,1.45
2022-10-10T23:02:44.728Z,1.30
2022-10-10T23:12:46.879Z,1.38
2022-10-10T23:22:48.667Z,1.42
2022-10-10T23:32:50.493Z,1.40
2022-10-10T23:42:53.599Z,1.60
2022-10-10T23:52:55.385Z,1.55
